Terminal Aerodrome Forecast
Issued by NWS Shreveport, LA

Home | Current Version | Previous Version | Text Only | Print | Product List | Glossary On
Versions: 1 2 3 4 5 6 7 8 9 10 11 12 13
833
FTUS44 KSHV 140548
TAFELD
TAF
KELD 140548Z 1406/1506 10009KT P6SM OVC045
     FM141200 12005KT P6SM OVC040
     FM141500 16009KT P6SM OVC030
     FM150000 16005KT 6SM BR VCSH OVC020=

USA.gov is the U.S. government's official web portal to all federal, state and local government web resources and services.